Estación Meteorológica Peña el Pijo (Robertgarden) [ 05/25/19 22:38:24 CEST ]

Fecha Hora Presion(HPa) Temp (°C) Humedad % Rocio (°C) Viento ( m/s) Direccion Lluvia 1Hora(mm) Lluvia 24H(mm) LLuvia Total(mm)
2019-Mar-05 01:01:57 1009.500 9.3 64 2.8         183.37
2019-Mar-05 02:03:08 1009.300 8.2 68 2.6         183.37
2019-Mar-05 03:01:51 1008.900 8.3 69 2.9         183.37
2019-Mar-05 04:01:42 1008.300 7.9 72 3.2         183.37
2019-Mar-05 05:02:01 1008.100 8.4 72 3.6         183.37
2019-Mar-05 06:01:43 1007.800 8.9 70 3.7         183.37
2019-Mar-05 07:01:34 1008.200 9.0 69 3.6         183.37
2019-Mar-05 08:01:50 1008.200 9.3 68 3.7         183.37
2019-Mar-05 09:01:48 1008.400 10.4 69 5.0 1.1 NW     183.37
2019-Mar-05 10:01:52 1008.700 11.8 65 5.4         183.37
2019-Mar-05 11:01:47 1008.800 14.8 57 6.3         183.37
2019-Mar-05 12:02:03 1009.300 14.9 51 4.9 2.5 N     183.37
2019-Mar-05 13:01:43 1009.100 13.6 58 5.5         183.37
2019-Mar-05 14:01:44 1008.300 16.3 54 6.9         183.37
2019-Mar-05 15:01:46 1007.700 17.4 47 5.9         183.37
2019-Mar-05 16:01:31 1007.300 16.9 44 4.5 2.9 WNW     183.37
2019-Mar-05 17:02:03 1006.900 16.8 45 4.7 0.5 NNW     183.37
2019-Mar-05 18:02:06 1006.700 14.9 48 4.0         183.37
2019-Mar-05 19:01:51 1006.700 12.9 55 4.0         183.37
2019-Mar-05 20:01:40 1006.900 10.6 60 3.2         183.37
2019-Mar-05 21:01:33 1006.900 8.9 65 2.6         183.37
2019-Mar-05 22:01:31 1006.800 7.4 69 2.1         183.37
2019-Mar-05 23:01:43 1006.700 7.3 72 2.6         183.37

Temperatura Máxima:17°    Temperatura Mínima:
Presión Máxima:1009.500 Hpa    Presión Mínima:1006.700 Hpa


Volver